Time;durP1;ratioP1;P1;durP2;ratioP2;P2;SDS_P1;SDS_P2;PMS_P1;PMS_P2;Temp;Humidity;BMP_temperature;BMP_pressure;BME280_temperature;BME280_humidity;BME280_pressure;Samples;Min_cycle;Max_cycle;Signal;HPM_P1;HPM_P2
2023/06/20 00:02:21;;;;;;;12.15;5.57;;;;;;;16.73;59.43;151489.09;5063557;28;20297;-73
2023/06/20 00:04:47;;;;;;;10.15;5.80;;;;;;;16.66;59.24;151471.06;5061612;28;20296;-74
2023/06/20 00:07:13;;;;;;;11.75;5.80;;;;;;;16.59;59.54;151451.72;5063625;28;20029;-74
2023/06/20 00:09:39;;;;;;;9.38;6.07;;;;;;;16.59;59.42;151451.72;5063539;28;20064;-73
2023/06/20 00:12:05;;;;;;;10.60;5.18;;;;;;;16.58;59.56;151450.44;5062504;28;20151;-75
2023/06/20 00:14:31;;;;;;;15.32;5.60;;;;;;;16.56;59.50;151446.59;5063318;28;20028;-75
2023/06/20 00:16:58;;;;;;;11.13;5.65;;;;;;;16.60;60.02;151454.31;5062744;28;20326;-73
2023/06/20 00:19:27;;;;;;;11.18;5.88;;;;;;;16.59;59.56;151453.03;5047112;28;20083;-70
2023/06/20 00:21:52;;;;;;;11.27;5.75;;;;;;;16.63;59.79;151462.03;5044956;28;20093;-70
2023/06/20 00:24:18;;;;;;;11.05;5.15;;;;;;;16.57;60.17;151447.84;5063095;28;20202;-70
2023/06/20 00:26:43;;;;;;;13.13;5.78;;;;;;;16.60;59.79;151454.31;5062783;28;20048;-70
2023/06/20 00:29:09;;;;;;;10.45;5.30;;;;;;;16.59;59.85;151453.03;5062684;28;20021;-72
2023/06/20 00:31:36;;;;;;;11.90;5.32;;;;;;;16.62;59.71;151459.50;5063427;28;20032;-72
2023/06/20 00:34:02;;;;;;;11.73;5.45;;;;;;;16.71;59.60;151482.66;5063500;28;20033;-72
2023/06/20 00:36:27;;;;;;;9.48;5.32;;;;;;;16.72;59.70;151486.50;5062038;28;20029;-73
2023/06/20 00:38:54;;;;;;;8.32;5.57;;;;;;;16.71;59.59;151483.91;5062829;28;20024;-73
2023/06/20 00:41:21;;;;;;;7.55;4.93;;;;;;;16.66;59.76;151469.75;5063111;28;20313;-73
2023/06/20 00:43:48;;;;;;;12.75;6.28;;;;;;;16.64;59.95;151465.91;5058093;28;20029;-72
2023/06/20 00:46:23;;;;;;;14.38;6.57;;;;;;;16.63;60.06;151463.34;5047406;28;20194;-73
2023/06/20 00:48:49;;;;;;;11.23;5.70;;;;;;;16.66;60.26;151469.75;5062338;28;20053;-73
2023/06/20 00:51:16;;;;;;;9.75;5.75;;;;;;;16.58;60.11;151449.19;5063249;28;20029;-73
2023/06/20 00:53:43;;;;;;;8.23;5.22;;;;;;;16.63;59.97;151462.03;5062563;28;20221;-73
2023/06/20 00:56:10;;;;;;;9.10;5.80;;;;;;;16.63;59.43;151462.03;5062226;28;20306;-72
2023/06/20 00:58:36;;;;;;;12.30;5.35;;;;;;;16.63;59.34;151462.03;5055732;28;20036;-71
2023/06/20 01:01:02;;;;;;;12.57;5.63;;;;;;;16.63;59.23;151463.34;5062397;28;20048;-71
2023/06/20 01:03:28;;;;;;;8.30;5.28;;;;;;;16.68;58.67;151474.94;5063111;28;20033;-72
2023/06/20 01:05:59;;;;;;;9.63;5.70;;;;;;;16.67;58.43;151473.63;5062817;28;20020;-73
2023/06/20 01:08:37;;;;;;;8.40;4.90;;;;;;;16.73;58.21;151487.78;5062838;28;20043;-72
2023/06/20 01:11:31;;;;;;;9.25;5.60;;;;;;;16.77;58.54;151496.81;5061404;28;20032;-72
2023/06/20 01:14:12;;;;;;;12.52;6.22;;;;;;;16.78;59.22;151499.41;5062848;28;20078;-73
2023/06/20 01:16:48;;;;;;;15.38;6.65;;;;;;;16.80;58.95;151505.88;5062696;28;20092;-72
2023/06/20 01:20:03;;;;;;;10.02;6.13;;;;;;;16.86;59.57;151520.00;5062421;28;20037;-72
2023/06/20 01:23:02;;;;;;;11.30;5.97;;;;;;;16.92;59.42;151535.53;5058047;28;20146;-72
2023/06/20 01:25:59;;;;;;;11.45;5.60;;;;;;;16.93;58.89;151536.81;5048294;28;20091;-73
2023/06/20 01:28:50;;;;;;;11.23;5.10;;;;;;;16.95;59.07;151541.97;5065468;28;20037;-74
2023/06/20 01:31:28;;;;;;;12.88;7.07;;;;;;;16.94;58.52;151540.66;5066153;28;20052;-72
2023/06/20 01:33:58;;;;;;;10.27;6.07;;;;;;;16.91;58.86;151532.94;5066273;28;20033;-73
2023/06/20 01:36:32;;;;;;;10.35;6.18;;;;;;;17.01;58.83;151557.44;5066096;28;20090;-71
2023/06/20 01:39:02;;;;;;;12.73;5.30;;;;;;;17.02;58.67;151560.03;5065934;28;20029;-74
2023/06/20 01:41:30;;;;;;;10.55;5.15;;;;;;;17.04;58.05;151566.44;5065986;28;20098;-73
2023/06/20 01:44:01;;;;;;;9.88;5.88;;;;;;;17.07;58.35;151572.88;5065958;28;20321;-73
2023/06/20 01:46:27;;;;;;;10.02;5.50;;;;;;;17.14;58.39;151589.66;5065771;28;20045;-72
2023/06/20 01:48:53;;;;;;;11.27;7.03;;;;;;;17.13;58.38;151587.06;5065998;28;20048;-72
2023/06/20 01:51:20;;;;;;;11.85;6.15;;;;;;;17.20;58.35;151605.09;5081118;28;20077;-71
2023/06/20 01:53:47;;;;;;;14.25;6.28;;;;;;;17.19;58.37;151602.56;5065633;28;20078;-70
2023/06/20 01:56:13;;;;;;;13.05;7.13;;;;;;;17.19;57.89;151602.56;5065793;28;20066;-71
2023/06/20 01:58:40;;;;;;;15.23;6.82;;;;;;;17.20;57.40;151606.41;5065206;28;20298;-71
2023/06/20 02:01:07;;;;;;;15.63;6.70;;;;;;;17.22;57.63;151610.28;5065513;28;20049;-71
2023/06/20 02:03:33;;;;;;;18.35;7.32;;;;;;;17.20;57.05;151606.41;5065814;28;20110;-71
2023/06/20 02:06:01;;;;;;;13.20;6.47;;;;;;;17.16;57.54;151594.78;5064844;28;20025;-71
2023/06/20 02:08:30;;;;;;;17.65;7.80;;;;;;;17.15;56.89;151592.22;5065013;28;20029;-72
2023/06/20 02:10:56;;;;;;;19.77;7.90;;;;;;;17.15;57.68;151593.50;5065242;28;20041;-71
2023/06/20 02:13:23;;;;;;;18.60;7.78;;;;;;;17.25;57.71;151619.28;5065213;28;20209;-71
2023/06/20 02:15:53;;;;;;;12.82;6.65;;;;;;;17.22;57.54;151611.53;5065242;28;20039;-72
2023/06/20 02:18:20;;;;;;;24.77;8.75;;;;;;;17.28;56.25;151625.72;5065371;28;20080;-71
2023/06/20 02:20:53;;;;;;;18.00;8.82;;;;;;;17.20;55.44;151605.09;5065249;28;20037;-72
2023/06/20 02:23:29;;;;;;;17.90;8.05;;;;;;;17.37;55.67;151647.63;5057512;28;20235;-75
2023/06/20 02:26:07;;;;;;;16.65;7.65;;;;;;;17.29;55.68;151628.31;5063767;28;20159;-73
2023/06/20 02:28:34;;;;;;;13.70;7.50;;;;;;;17.35;56.17;151643.75;5065121;28;20075;-72
2023/06/20 02:31:00;;;;;;;18.35;7.97;;;;;;;17.46;55.97;151670.84;5065225;28;20084;-72
2023/06/20 02:33:32;;;;;;;16.58;7.25;;;;;;;17.55;55.87;151692.75;5065154;28;20021;-72
2023/06/20 02:36:00;;;;;;;16.27;7.18;;;;;;;17.61;56.11;151708.22;5065094;28;20159;-71
2023/06/20 02:38:25;;;;;;;13.20;6.72;;;;;;;17.67;55.49;151722.38;5064398;28;20033;-70
2023/06/20 02:40:51;;;;;;;13.70;7.15;;;;;;;17.65;55.94;151718.53;5064493;28;20048;-70
2023/06/20 02:43:17;;;;;;;15.73;7.63;;;;;;;17.76;56.05;151746.88;5064646;28;20023;-71
2023/06/20 02:45:44;;;;;;;9.55;5.85;;;;;;;17.75;55.27;151743.03;5064573;28;20061;-73
2023/06/20 02:48:40;;;;;;;10.60;5.38;;;;;;;17.56;54.64;151696.63;5063729;28;20210;-72
2023/06/20 02:51:07;;;;;;;13.10;6.57;;;;;;;17.84;54.82;151764.94;5064491;28;20041;-72
2023/06/20 02:54:11;;;;;;;11.63;5.80;;;;;;;17.90;54.43;151780.41;5064588;28;20365;-72
2023/06/20 02:56:41;;;;;;;15.10;6.20;;;;;;;17.91;53.58;151784.34;5064313;28;20037;-72
2023/06/20 02:59:09;;;;;;;13.10;6.25;;;;;;;17.98;54.08;151801.09;5064685;28;20096;-70
2023/06/20 03:01:37;;;;;;;13.27;5.95;;;;;;;18.03;53.92;151812.72;5063272;28;20020;-75
2023/06/20 03:04:04;;;;;;;11.00;5.57;;;;;;;18.14;53.97;151841.03;5064322;28;20032;-74
2023/06/20 03:06:31;;;;;;;9.70;5.85;;;;;;;18.07;54.07;151824.31;5064244;28;20092;-74
2023/06/20 03:09:00;;;;;;;11.68;5.43;;;;;;;18.25;53.67;151868.16;5064062;28;20339;-73
2023/06/20 03:11:26;;;;;;;9.90;5.40;;;;;;;18.33;53.69;151888.78;5063183;28;20032;-72
2023/06/20 03:13:52;;;;;;;11.85;5.32;;;;;;;18.38;53.10;151900.38;5059939;28;20045;-74
2023/06/20 03:16:17;;;;;;;12.02;5.57;;;;;;;18.43;53.21;151913.31;5047886;28;20025;-72
2023/06/20 03:18:43;;;;;;;7.95;5.20;;;;;;;18.48;53.25;151926.19;5064042;28;20032;-73
2023/06/20 03:21:08;;;;;;;7.32;5.00;;;;;;;18.53;52.20;151939.09;5064053;28;20033;-72
2023/06/20 03:23:34;;;;;;;11.00;4.82;;;;;;;18.58;52.40;151952.00;5063114;28;20355;-72
2023/06/20 03:25:59;;;;;;;9.07;5.05;;;;;;;18.66;50.74;151971.34;5063656;28;20032;-71
2023/06/20 03:28:25;;;;;;;9.20;4.70;;;;;;;18.66;51.29;151970.06;5063970;28;20029;-71
2023/06/20 03:30:51;;;;;;;10.88;5.22;;;;;;;18.67;50.44;151973.94;5062383;28;20056;-70
2023/06/20 03:33:17;;;;;;;9.60;4.88;;;;;;;18.66;50.42;151971.34;5044102;28;20242;-70
2023/06/20 03:35:43;;;;;;;10.13;4.57;;;;;;;18.71;49.98;151984.25;5059022;28;20029;-73
2023/06/20 03:38:08;;;;;;;5.18;4.50;;;;;;;18.75;49.96;151993.25;5063680;28;20040;-73
2023/06/20 03:40:34;;;;;;;6.18;4.30;;;;;;;18.65;50.20;151968.75;5063465;28;20040;-75
2023/06/20 03:42:59;;;;;;;6.03;4.00;;;;;;;18.72;49.55;151986.81;5045732;28;20090;-73
2023/06/20 03:45:25;;;;;;;8.40;4.63;;;;;;;18.76;49.44;151997.13;5063783;28;20036;-71
2023/06/20 03:47:51;;;;;;;10.20;4.50;;;;;;;18.80;48.53;152006.19;5063474;28;20025;-73
2023/06/20 03:50:16;;;;;;;9.07;4.15;;;;;;;18.84;49.63;152015.19;5062624;28;20025;-71
2023/06/20 03:52:42;;;;;;;6.95;4.03;;;;;;;18.87;49.90;152024.28;5062310;28;20210;-72
2023/06/20 03:55:08;;;;;;;7.90;4.28;;;;;;;18.86;48.97;152020.38;5079372;28;20270;-72
2023/06/20 03:57:34;;;;;;;8.82;4.32;;;;;;;18.98;48.44;152051.38;5063796;28;20028;-72
2023/06/20 03:59:59;;;;;;;8.73;4.30;;;;;;;19.05;48.99;152068.16;5063353;28;20033;-73
2023/06/20 04:02:25;;;;;;;8.02;4.18;;;;;;;19.15;47.57;152093.94;5063393;28;20024;-72
2023/06/20 04:04:50;;;;;;;5.32;4.15;;;;;;;19.19;46.99;152103.00;5063029;28;20032;-71
2023/06/20 04:07:19;;;;;;;6.65;3.45;;;;;;;19.15;45.61;152093.94;5062654;28;20033;-71
2023/06/20 04:09:51;;;;;;;7.32;3.58;;;;;;;19.28;48.24;152126.22;5043968;28;20053;-74
2023/06/20 04:12:17;;;;;;;6.90;3.97;;;;;;;19.38;47.63;152150.75;5064060;28;20032;-72
2023/06/20 04:14:43;;;;;;;7.57;4.03;;;;;;;19.41;47.18;152158.47;5063252;28;20168;-72
2023/06/20 04:17:08;;;;;;;9.63;3.92;;;;;;;19.47;47.25;152174.00;5062397;28;20021;-75
2023/06/20 04:19:34;;;;;;;8.75;4.25;;;;;;;19.53;47.45;152188.19;5045709;28;20029;-74
2023/06/20 04:22:00;;;;;;;9.98;4.20;;;;;;;19.54;46.95;152190.75;5062426;28;20536;-73
2023/06/20 04:24:26;;;;;;;4.90;3.88;;;;;;;19.52;47.11;152185.59;5062316;28;20209;-73
2023/06/20 04:26:54;;;;;;;7.50;4.22;;;;;;;19.63;45.36;152214.00;5063197;28;20041;-74
2023/06/20 04:29:20;;;;;;;6.43;3.80;;;;;;;19.70;44.93;152232.06;5063640;28;20029;-74
2023/06/20 04:31:45;;;;;;;7.20;4.10;;;;;;;19.66;44.45;152223.00;5063041;28;20025;-73
2023/06/20 04:34:11;;;;;;;5.57;3.72;;;;;;;19.76;45.16;152247.53;5063127;28;20028;-72
2023/06/20 04:36:36;;;;;;;7.28;3.97;;;;;;;19.87;44.17;152273.44;5062714;28;20039;-72
2023/06/20 04:39:04;;;;;;;7.30;4.07;;;;;;;19.95;44.21;152295.41;5062781;28;20029;-74
2023/06/20 04:41:29;;;;;;;13.20;3.95;;;;;;;19.80;46.67;152256.66;5062957;28;20262;-74
2023/06/20 04:43:55;;;;;;;7.82;4.00;;;;;;;19.97;45.56;152299.25;5062142;28;20025;-73
2023/06/20 04:46:20;;;;;;;6.85;4.05;;;;;;;19.97;43.86;152299.25;5061800;28;20032;-72
2023/06/20 04:48:46;;;;;;;9.50;4.13;;;;;;;19.96;44.63;152296.66;5062999;28;20033;-73
2023/06/20 04:51:11;;;;;;;8.52;3.80;;;;;;;20.12;44.73;152338.00;5045767;28;20025;-72
2023/06/20 04:53:38;;;;;;;9.68;4.18;;;;;;;20.21;43.98;152359.97;5045168;28;20028;-74
2023/06/20 04:56:03;;;;;;;8.55;3.60;;;;;;;20.27;43.77;152374.16;5062881;28;20032;-74
2023/06/20 04:58:29;;;;;;;7.72;3.92;;;;;;;20.28;43.38;152376.72;5060970;28;20061;-74
2023/06/20 05:00:59;;;;;;;7.55;3.90;;;;;;;20.51;43.80;152434.88;5062143;28;20033;-74
2023/06/20 05:03:25;;;;;;;9.57;4.07;;;;;;;20.52;44.19;152438.75;5046419;28;20025;-73
2023/06/20 05:05:51;;;;;;;10.90;3.88;;;;;;;20.66;42.14;152472.31;5061863;28;20098;-72
2023/06/20 05:08:17;;;;;;;11.05;4.15;;;;;;;20.55;41.10;152445.22;5066122;28;20306;-71
2023/06/20 05:10:42;;;;;;;5.70;3.25;;;;;;;20.71;40.81;152483.97;5065624;28;20057;-71
2023/06/20 05:13:08;;;;;;;9.02;3.67;;;;;;;20.86;40.79;152524.06;5066152;28;20052;-72
2023/06/20 05:15:34;;;;;;;7.80;3.22;;;;;;;20.96;40.63;152547.28;5066384;28;20198;-71
2023/06/20 05:17:59;;;;;;;11.20;3.90;;;;;;;21.09;40.57;152580.91;5066432;28;20032;-71
2023/06/20 05:20:25;;;;;;;6.20;3.58;;;;;;;21.09;40.12;152580.91;5066492;28;20059;-69
2023/06/20 05:22:50;;;;;;;6.30;3.60;;;;;;;20.98;39.74;152552.47;5065929;28;20325;-69
2023/06/20 05:25:16;;;;;;;4.78;3.03;;;;;;;20.98;39.56;152552.47;5066023;28;20371;-70
2023/06/20 05:27:42;;;;;;;11.85;3.78;;;;;;;21.15;39.65;152595.06;5065916;28;20040;-71
2023/06/20 05:30:11;;;;;;;6.10;3.65;;;;;;;21.23;39.50;152615.75;5066110;28;20100;-70
2023/06/20 05:32:37;;;;;;;9.88;3.30;;;;;;;21.03;39.49;152565.38;5065623;28;20108;-71
2023/06/20 05:35:05;;;;;;;9.88;3.28;;;;;;;21.24;39.83;152618.34;5065934;28;20075;-70
2023/06/20 05:37:30;;;;;;;5.50;3.15;;;;;;;21.29;39.36;152631.28;5065941;28;20028;-70
2023/06/20 05:39:57;;;;;;;6.57;3.53;;;;;;;21.14;39.94;152593.78;5065521;28;20020;-71
2023/06/20 05:42:22;;;;;;;9.85;3.42;;;;;;;21.26;39.33;152622.22;5065708;28;20032;-70
2023/06/20 05:44:48;;;;;;;5.82;3.28;;;;;;;21.35;39.40;152645.50;5065347;28;20071;-70
2023/06/20 05:47:17;;;;;;;10.63;3.60;;;;;;;21.42;39.54;152662.28;5064364;28;20097;-67
2023/06/20 05:49:47;;;;;;;6.95;3.22;;;;;;;21.53;39.38;152692.09;5065926;28;20052;-67
2023/06/20 05:52:13;;;;;;;6.35;3.92;;;;;;;21.51;39.41;152686.91;5047782;28;20028;-68
2023/06/20 05:54:41;;;;;;;5.03;3.40;;;;;;;21.72;39.04;152739.91;5064886;28;20100;-67
2023/06/20 05:57:07;;;;;;;5.13;3.20;;;;;;;21.72;38.92;152738.63;5065075;28;20025;-68
2023/06/20 05:59:33;;;;;;;7.72;3.05;;;;;;;22.02;38.97;152813.59;5065084;28;20036;-68
2023/06/20 06:01:59;;;;;;;5.32;2.80;;;;;;;21.95;38.51;152795.47;5064489;28;20025;-66
2023/06/20 06:04:25;;;;;;;6.68;3.30;;;;;;;22.09;38.75;152831.72;5065176;28;20033;-70
2023/06/20 06:06:51;;;;;;;5.88;2.90;;;;;;;22.17;38.72;152852.34;5063847;28;20032;-70
2023/06/20 06:09:17;;;;;;;7.70;2.83;;;;;;;22.11;37.32;152835.59;5059156;28;20049;-70
2023/06/20 06:11:43;;;;;;;4.85;2.80;;;;;;;22.17;37.18;152852.34;5059308;28;20075;-68
2023/06/20 06:14:09;;;;;;;6.45;2.70;;;;;;;22.31;37.78;152886.00;5063826;28;20052;-68
2023/06/20 06:16:35;;;;;;;4.53;2.40;;;;;;;22.51;37.29;152937.78;5061363;28;20344;-69
2023/06/20 06:19:00;;;;;;;7.20;2.95;;;;;;;22.62;38.05;152963.63;5061065;28;20293;-68
2023/06/20 06:21:26;;;;;;;7.00;2.63;;;;;;;22.68;36.41;152979.19;5065454;28;20039;-69
2023/06/20 06:23:52;;;;;;;5.22;2.72;;;;;;;22.63;36.47;152966.22;5064861;28;20024;-69
2023/06/20 06:26:17;;;;;;;5.20;3.10;;;;;;;22.74;36.19;152995.97;5064992;28;20028;-68
2023/06/20 06:28:43;;;;;;;4.53;2.60;;;;;;;22.57;36.23;152952.00;5064851;28;20332;-69
2023/06/20 06:31:11;;;;;;;6.18;3.20;;;;;;;22.62;37.28;152964.94;5064775;28;20064;-70
2023/06/20 06:33:40;;;;;;;9.82;3.85;;;;;;;22.66;36.57;152973.97;5065298;28;20032;-68
2023/06/20 06:36:06;;;;;;;6.07;2.83;;;;;;;22.74;36.63;152995.97;5064675;28;20025;-68
2023/06/20 06:38:32;;;;;;;6.53;2.50;;;;;;;22.88;36.54;153030.91;5064459;28;20028;-70
2023/06/20 06:40:59;;;;;;;4.05;2.40;;;;;;;23.06;36.34;153074.91;5063790;28;20049;-69
2023/06/20 06:43:25;;;;;;;8.38;2.80;;;;;;;23.06;38.00;153076.19;5064997;28;20151;-69
2023/06/20 06:45:52;;;;;;;3.65;2.75;;;;;;;22.93;37.23;153042.53;5064595;28;20025;-69
2023/06/20 06:48:17;;;;;;;7.68;2.70;;;;;;;22.75;35.99;152997.28;5064633;28;20314;-70
2023/06/20 06:50:46;;;;;;;7.60;2.53;;;;;;;22.78;36.64;153005.03;5064426;28;20031;-70
2023/06/20 06:53:12;;;;;;;5.95;2.22;;;;;;;22.54;36.36;152945.53;5064138;28;20405;-69
2023/06/20 06:55:37;;;;;;;6.80;2.53;;;;;;;22.77;36.17;153001.16;5064394;28;20045;-70
2023/06/20 06:58:03;;;;;;;5.45;2.92;;;;;;;22.79;36.86;153007.63;5064347;28;20035;-69
2023/06/20 07:00:29;;;;;;;5.03;2.90;;;;;;;22.70;37.71;152985.66;5064029;28;20029;-70
2023/06/20 07:02:54;;;;;;;5.57;2.83;;;;;;;22.84;36.76;153020.53;5063895;28;20044;-69
2023/06/20 07:05:20;;;;;;;3.72;2.30;;;;;;;22.86;36.43;153025.75;5063776;28;20049;-70
2023/06/20 07:07:45;;;;;;;6.82;2.42;;;;;;;22.85;36.39;153021.88;5063084;28;20025;-70
2023/06/20 07:10:11;;;;;;;5.55;2.63;;;;;;;23.07;35.91;153077.47;5063663;28;20045;-69
2023/06/20 07:12:37;;;;;;;3.03;2.50;;;;;;;23.22;36.39;153116.34;5064028;28;20040;-69
2023/06/20 07:15:02;;;;;;;5.50;2.88;;;;;;;23.38;36.63;153156.44;5064015;28;20093;-69
2023/06/20 07:17:29;;;;;;;5.05;2.47;;;;;;;23.32;36.39;153140.94;5063575;28;20032;-69
2023/06/20 07:19:55;;;;;;;6.18;2.63;;;;;;;23.07;36.25;153078.78;5064008;28;20021;-69
2023/06/20 07:22:21;;;;;;;4.55;2.50;;;;;;;22.92;35.95;153041.25;5063879;28;20028;-71
2023/06/20 07:24:47;;;;;;;4.05;2.70;;;;;;;23.06;36.00;153074.91;5063601;28;20033;-68
2023/06/20 07:27:12;;;;;;;5.70;2.63;;;;;;;23.46;35.96;153175.88;5063807;28;20037;-70
2023/06/20 07:29:38;;;;;;;5.13;2.88;;;;;;;23.48;36.77;153181.03;5063533;28;20021;-68
2023/06/20 07:32:04;;;;;;;8.38;2.58;;;;;;;23.23;35.57;153117.63;5062157;28;20025;-70
2023/06/20 07:34:29;;;;;;;9.88;2.53;;;;;;;23.26;36.25;153125.44;5063588;28;20060;-69
2023/06/20 07:36:56;;;;;;;6.95;2.55;;;;;;;23.03;35.82;153068.44;5063212;28;20056;-69
2023/06/20 07:39:21;;;;;;;6.78;2.40;;;;;;;23.11;36.50;153087.88;5063234;28;20045;-71
2023/06/20 07:41:47;;;;;;;6.15;2.67;;;;;;;23.24;36.64;153121.53;5063662;28;20040;-70
2023/06/20 07:44:12;;;;;;;7.97;2.60;;;;;;;23.45;36.75;153173.28;5062765;28;20040;-70
2023/06/20 07:46:39;;;;;;;6.18;2.65;;;;;;;23.30;36.89;153134.47;5062665;28;20214;-69
2023/06/20 07:49:05;;;;;;;6.15;2.75;;;;;;;23.24;36.52;153121.53;5062385;28;20045;-69
2023/06/20 07:51:33;;;;;;;3.70;2.70;;;;;;;23.47;36.73;153177.16;5062598;28;20353;-70
2023/06/20 07:54:05;;;;;;;13.05;3.03;;;;;;;23.40;35.58;153160.31;5063039;28;20033;-68
2023/06/20 07:56:30;;;;;;;;;;;;;;;23.46;34.69;153174.56;5060988;28;20029;-71
2023/06/20 07:58:56;;;;;;;6.82;2.72;;;;;;;23.26;35.87;153126.69;5063091;28;19905;-70
2023/06/20 08:01:22;;;;;;;7.93;2.85;;;;;;;23.48;35.11;153181.03;5062425;28;20021;-68
2023/06/20 08:03:48;;;;;;;10.30;3.00;;;;;;;23.31;35.45;153137.06;5062021;28;20067;-70
2023/06/20 08:06:14;;;;;;;6.57;2.90;;;;;;;23.21;35.91;153113.75;5062488;28;20045;-70
2023/06/20 08:08:39;;;;;;;5.63;3.10;;;;;;;23.27;35.69;153129.31;5062426;28;20032;-71
2023/06/20 08:11:05;;;;;;;4.32;2.50;;;;;;;23.35;35.92;153148.69;5061408;28;20032;-70
2023/06/20 08:13:31;;;;;;;8.63;3.58;;;;;;;23.66;35.57;153225.03;5063449;28;20041;-72
2023/06/20 08:15:57;;;;;;;5.18;2.83;;;;;;;23.71;36.14;153238.00;5062615;28;20033;-70
2023/06/20 08:18:22;;;;;;;7.35;3.90;;;;;;;23.87;35.13;153279.50;5061843;28;20024;-70
2023/06/20 08:20:48;;;;;;;5.90;3.05;;;;;;;23.95;35.82;153298.88;5062674;28;20179;-70
2023/06/20 08:23:15;;;;;;;5.53;3.10;;;;;;;24.14;35.20;153346.75;5062511;28;20043;-69
2023/06/20 08:25:40;;;;;;;4.90;3.13;;;;;;;24.17;34.79;153354.56;5062167;28;20028;-70
2023/06/20 08:28:06;;;;;;;4.90;2.90;;;;;;;24.15;34.99;153349.38;5062707;28;20025;-71
2023/06/20 08:30:31;;;;;;;4.43;2.90;;;;;;;24.18;34.81;153357.13;5062216;28;20051;-71
2023/06/20 08:32:57;;;;;;;4.50;2.97;;;;;;;24.01;34.86;153314.41;5060085;28;20029;-69
2023/06/20 08:35:22;;;;;;;3.15;2.85;;;;;;;24.00;35.41;153311.84;5062497;28;20043;-70
2023/06/20 08:37:48;;;;;;;5.15;2.78;;;;;;;24.00;35.33;153310.53;5068622;28;20078;-70
2023/06/20 08:40:14;;;;;;;6.47;2.90;;;;;;;23.67;35.37;153228.97;5069185;28;20241;-70
2023/06/20 08:42:42;;;;;;;6.25;3.03;;;;;;;23.57;35.96;153204.38;5069068;28;20032;-70
2023/06/20 08:45:08;;;;;;;5.90;3.10;;;;;;;23.34;36.16;153144.81;5068519;28;20021;-71
2023/06/20 08:47:34;;;;;;;6.90;2.95;;;;;;;23.54;36.23;153195.28;5069041;28;20039;-71
2023/06/20 08:50:00;;;;;;;5.85;3.13;;;;;;;23.84;36.36;153271.63;5068462;28;20029;-71
2023/06/20 08:52:30;;;;;;;7.70;3.20;;;;;;;24.10;37.04;153337.72;5069061;28;20028;-71
2023/06/20 08:54:56;;;;;;;8.48;3.00;;;;;;;24.26;36.10;153377.84;5068867;28;20032;-70
2023/06/20 08:57:22;;;;;;;6.22;3.20;;;;;;;24.40;36.49;153412.81;5069179;28;20037;-69
2023/06/20 08:59:48;;;;;;;3.30;3.00;;;;;;;24.37;36.91;153405.06;5068782;28;20104;-70
2023/06/20 09:02:14;;;;;;;4.00;3.03;;;;;;;24.56;35.96;153452.97;5068818;28;20075;-70
2023/06/20 09:04:39;;;;;;;4.22;2.80;;;;;;;24.52;36.26;153442.59;5068630;28;20029;-69
2023/06/20 09:07:17;;;;;;;8.82;3.55;;;;;;;24.50;35.75;153436.13;5068744;28;20029;-70
2023/06/20 09:09:42;;;;;;;5.80;2.80;;;;;;;24.42;36.16;153416.72;5067029;28;20056;-68
2023/06/20 09:12:08;;;;;;;8.07;3.60;;;;;;;24.20;36.37;153362.34;5069013;28;20202;-69
2023/06/20 09:14:34;;;;;;;5.25;2.60;;;;;;;23.91;35.61;153288.53;5068988;28;20021;-70
2023/06/20 09:16:59;;;;;;;4.70;2.67;;;;;;;23.59;37.49;153209.50;5068946;28;20017;-69
2023/06/20 09:19:25;;;;;;;3.28;2.55;;;;;;;23.98;36.64;153305.38;5067785;28;20020;-69
2023/06/20 09:21:51;;;;;;;5.78;3.00;;;;;;;24.00;36.43;153311.84;5068838;28;20199;-69
2023/06/20 09:24:19;;;;;;;3.70;2.63;;;;;;;24.12;36.30;153341.59;5084617;28;20104;-70
2023/06/20 09:26:46;;;;;;;7.78;2.63;;;;;;;24.08;36.51;153331.25;5068736;28;20028;-68
2023/06/20 09:29:15;;;;;;;6.45;2.67;;;;;;;24.01;36.01;153313.13;5068839;28;20028;-69
2023/06/20 09:31:49;;;;;;;5.03;2.72;;;;;;;24.01;36.18;153314.41;5068677;28;20074;-69
2023/06/20 09:34:18;;;;;;;3.08;2.63;;;;;;;24.12;36.33;153342.88;5068812;28;20025;-68
2023/06/20 09:36:45;;;;;;;4.07;3.10;;;;;;;24.37;35.85;153405.06;5061117;28;20052;-69
2023/06/20 09:39:13;;;;;;;4.75;3.70;;;;;;;24.44;36.06;153421.88;5068446;28;20040;-67
2023/06/20 09:41:49;;;;;;;3.22;2.90;;;;;;;24.27;36.18;153380.47;5068080;28;20021;-68
2023/06/20 09:44:19;;;;;;;5.80;2.70;;;;;;;24.13;36.73;153344.22;5065373;28;20040;-69
2023/06/20 09:46:45;;;;;;;4.05;2.90;;;;;;;24.35;36.61;153398.59;5068334;28;20048;-69
2023/06/20 09:49:15;;;;;;;3.13;2.83;;;;;;;24.23;37.40;153370.09;5065530;28;20190;-68
2023/06/20 09:51:54;;;;;;;7.43;2.97;;;;;;;24.26;36.46;153376.56;5065777;28;20071;-69
2023/06/20 09:54:41;;;;;;;5.50;2.67;;;;;;;24.50;36.21;153437.44;5065821;28;20100;-69
2023/06/20 09:57:11;;;;;;;5.20;2.60;;;;;;;24.41;35.87;153414.09;5064460;28;20032;-70
2023/06/20 09:59:41;;;;;;;7.53;2.65;;;;;;;24.44;37.04;153421.88;5064465;28;20033;-70
2023/06/20 10:02:09;;;;;;;4.32;3.00;;;;;;;24.29;36.40;153384.34;5062726;28;20032;-70
2023/06/20 10:04:42;;;;;;;4.65;3.00;;;;;;;24.13;35.39;153345.50;5065134;28;20028;-70
2023/06/20 10:07:11;;;;;;;5.07;2.75;;;;;;;24.07;35.92;153328.66;5062031;28;20265;-72
2023/06/20 10:09:39;;;;;;;4.63;2.90;;;;;;;24.07;34.80;153329.97;5064050;28;20037;-69
2023/06/20 10:12:06;;;;;;;4.70;2.70;;;;;;;24.11;35.99;153339.00;5064806;28;20108;-71
2023/06/20 10:14:32;;;;;;;4.75;3.10;;;;;;;23.81;36.66;153262.59;5062465;28;20048;-71
2023/06/20 10:17:06;;;;;;;4.55;3.13;;;;;;;23.82;35.84;153266.47;5064416;28;20067;-71
2023/06/20 10:19:46;;;;;;;5.90;2.78;;;;;;;23.95;35.99;153300.16;5063025;28;20083;-71
2023/06/20 10:22:11;;;;;;;5.18;3.13;;;;;;;24.09;36.64;153333.84;5063948;28;20122;-70
2023/06/20 10:24:40;;;;;;;3.05;2.85;;;;;;;24.08;36.57;153331.25;5062256;28;20025;-70
2023/06/20 10:27:07;;;;;;;4.63;3.00;;;;;;;24.08;37.39;153332.53;5064295;28;20017;-70
2023/06/20 10:29:40;;;;;;;5.20;3.47;;;;;;;23.63;36.20;153218.59;5062017;28;20041;-71
2023/06/20 10:32:08;;;;;;;4.40;3.15;;;;;;;24.17;36.59;153354.56;5063703;28;20092;-69
2023/06/20 10:34:38;;;;;;;4.68;2.97;;;;;;;24.21;35.78;153364.88;5064340;28;20174;-71
2023/06/20 10:37:34;;;;;;;4.32;3.25;;;;;;;24.13;35.95;153345.50;5064951;28;20029;-69
2023/06/20 10:40:00;;;;;;;4.38;3.00;;;;;;;24.11;36.22;153339.00;5049142;28;20100;-69
2023/06/20 10:42:40;;;;;;;8.02;3.03;;;;;;;23.87;36.42;153279.50;5064938;28;20044;-68
2023/06/20 10:45:17;;;;;;;5.13;3.55;;;;;;;24.02;36.17;153315.72;5064587;28;20025;-68
2023/06/20 10:47:43;;;;;;;4.13;3.30;;;;;;;23.83;36.47;153267.75;5064701;28;20072;-69
2023/06/20 10:50:10;;;;;;;7.50;3.00;;;;;;;23.79;36.95;153258.72;5064061;28;20048;-69
2023/06/20 10:52:37;;;;;;;3.47;3.10;;;;;;;24.08;36.67;153331.25;5064610;28;20099;-69
2023/06/20 10:55:06;;;;;;;3.83;3.13;;;;;;;24.33;37.56;153393.38;5064014;28;20020;-69
2023/06/20 10:57:34;;;;;;;5.07;3.40;;;;;;;24.23;38.02;153368.81;5063314;28;20041;-68
2023/06/20 11:00:19;;;;;;;5.05;3.25;;;;;;;24.27;37.09;153380.47;5063705;28;20028;-70
2023/06/20 11:02:48;;;;;;;7.05;3.00;;;;;;;24.21;36.67;153364.88;5061302;28;20035;-69
2023/06/20 11:05:14;;;;;;;8.57;3.17;;;;;;;24.19;37.49;153359.72;5063515;28;20082;-69
2023/06/20 11:08:00;;;;;;;6.32;3.40;;;;;;;24.36;37.61;153401.19;5063768;28;20305;-70
2023/06/20 11:10:28;;;;;;;3.92;3.20;;;;;;;24.37;37.67;153405.06;5063330;28;20033;-70
2023/06/20 11:12:54;;;;;;;5.75;3.42;;;;;;;24.37;37.36;153403.75;5060784;28;20066;-70
2023/06/20 11:15:38;;;;;;;6.53;3.58;;;;;;;24.19;37.09;153358.47;5063436;28;20380;-70
2023/06/20 11:18:08;;;;;;;6.93;3.90;;;;;;;23.77;37.62;153254.84;5057935;28;20088;-70
2023/06/20 11:20:36;;;;;;;4.00;3.60;;;;;;;24.21;37.16;153363.59;5063699;28;20385;-69
2023/06/20 11:23:20;;;;;;;7.30;3.80;;;;;;;24.36;37.20;153401.19;5063943;28;20028;-70
2023/06/20 11:25:47;;;;;;;8.35;3.53;;;;;;;24.44;36.76;153423.19;5063602;28;20048;-69
2023/06/20 11:28:16;;;;;;;11.82;4.07;;;;;;;24.55;36.67;153450.34;5063864;28;20309;-72
2023/06/20 11:30:47;;;;;;;12.00;3.35;;;;;;;24.51;36.11;153440.00;5062956;28;20329;-71